CA1025 ZPPP-VTSP
Flight info
| Callsign | CA1025 |
|---|---|
| Flight time | N/A |
| Altitude | 40000 |
| Route | ELASU A581 SAGAG B218 LPB B346 BKK Y8 SAVSA |
| Aircraft | B738/L-VGDW/C |
Departure
| Time | N/A |
|---|---|
| Airport | Kunming Changshui International Airport (ZPPP) |
Arrival
| Time | 2026-04-27 06:09 |
|---|---|
| Airport | Phuket International Airport (VTSP) |
| Time | Latitude | Longitude | Altitude | Speed | Heading |
|---|---|---|---|---|---|
| 2026-04-27 05:21 | 11.86850 | 99.76096 | 39991 ft | 453 kts | 182° |
| 2026-04-27 05:22 | 11.80586 | 99.76102 | 39991 ft | 453 kts | 182° |
| 2026-04-27 05:22 | 11.74256 | 99.76109 | 39987 ft | 453 kts | 182° |
| 2026-04-27 05:23 | 11.67937 | 99.76112 | 39987 ft | 453 kts | 182° |
| 2026-04-27 05:23 | 11.61616 | 99.76119 | 39986 ft | 453 kts | 182° |
| 2026-04-27 05:24 | 11.55277 | 99.76125 | 39985 ft | 454 kts | 182° |
| 2026-04-27 05:24 | 11.48960 | 99.76130 | 39983 ft | 454 kts | 182° |
| 2026-04-27 05:25 | 11.42614 | 99.76137 | 39984 ft | 454 kts | 182° |
| 2026-04-27 05:25 | 11.36244 | 99.76147 | 39985 ft | 454 kts | 182° |
| 2026-04-27 05:26 | 11.29890 | 99.76150 | 39984 ft | 454 kts | 182° |
| 2026-04-27 05:26 | 11.23519 | 99.76157 | 39983 ft | 454 kts | 182° |
| 2026-04-27 05:27 | 11.17200 | 99.76087 | 39984 ft | 453 kts | 185° |
| 2026-04-27 05:27 | 11.11007 | 99.75092 | 39984 ft | 449 kts | 198° |
| 2026-04-27 05:28 | 11.04989 | 99.73207 | 39984 ft | 450 kts | 199° |
| 2026-04-27 05:28 | 10.98988 | 99.71378 | 39984 ft | 450 kts | 199° |
| 2026-04-27 05:29 | 10.92969 | 99.69516 | 39984 ft | 449 kts | 199° |
| 2026-04-27 05:29 | 10.86971 | 99.67652 | 39984 ft | 450 kts | 199° |
| 2026-04-27 05:30 | 10.80944 | 99.65775 | 39985 ft | 450 kts | 199° |
| 2026-04-27 05:30 | 10.74943 | 99.63898 | 39987 ft | 451 kts | 199° |
| 2026-04-27 05:31 | 10.68921 | 99.62015 | 39986 ft | 450 kts | 199° |
| 2026-04-27 05:31 | 10.62920 | 99.60143 | 39987 ft | 450 kts | 199° |
| 2026-04-27 05:32 | 10.56930 | 99.58266 | 39986 ft | 450 kts | 199° |
| 2026-04-27 05:32 | 10.50942 | 99.56403 | 39986 ft | 450 kts | 199° |
| 2026-04-27 05:33 | 10.44908 | 99.54519 | 39985 ft | 450 kts | 199° |
| 2026-04-27 05:33 | 10.38893 | 99.52642 | 39984 ft | 450 kts | 199° |
| 2026-04-27 05:34 | 10.32888 | 99.50765 | 39984 ft | 450 kts | 199° |
| 2026-04-27 05:34 | 10.26909 | 99.48904 | 39984 ft | 450 kts | 199° |
| 2026-04-27 05:35 | 10.20890 | 99.47025 | 39984 ft | 451 kts | 199° |
| 2026-04-27 05:35 | 10.14865 | 99.45146 | 39984 ft | 451 kts | 199° |
| 2026-04-27 05:36 | 10.08826 | 99.43269 | 39984 ft | 451 kts | 199° |
| 2026-04-27 05:36 | 10.02814 | 99.41397 | 39984 ft | 450 kts | 199° |
| 2026-04-27 05:37 | 9.96809 | 99.39529 | 39984 ft | 450 kts | 199° |
| 2026-04-27 05:37 | 9.90819 | 99.37666 | 39981 ft | 451 kts | 199° |
| 2026-04-27 05:38 | 9.84801 | 99.35796 | 39979 ft | 451 kts | 199° |
| 2026-04-27 05:38 | 9.78769 | 99.33916 | 39980 ft | 451 kts | 199° |
| 2026-04-27 05:39 | 9.72744 | 99.32047 | 39978 ft | 451 kts | 199° |
| 2026-04-27 05:39 | 9.66736 | 99.30180 | 39977 ft | 451 kts | 199° |
| 2026-04-27 05:40 | 9.60745 | 99.28318 | 39369 ft | 454 kts | 199° |
| 2026-04-27 05:40 | 9.57693 | 99.27374 | 38510 ft | 451 kts | 199° |
| 2026-04-27 05:40 | 9.54716 | 99.26454 | 37872 ft | 447 kts | 199° |
| 2026-04-27 05:40 | 9.51754 | 99.25529 | 37036 ft | 446 kts | 198° |
| 2026-04-27 05:41 | 9.48760 | 99.24585 | 36156 ft | 450 kts | 198° |
| 2026-04-27 05:41 | 9.45741 | 99.23638 | 35392 ft | 458 kts | 198° |
| 2026-04-27 05:41 | 9.42680 | 99.22678 | 34589 ft | 460 kts | 197° |
| 2026-04-27 05:41 | 9.39634 | 99.21722 | 33776 ft | 458 kts | 197° |
| 2026-04-27 05:42 | 9.36586 | 99.20763 | 32938 ft | 465 kts | 197° |
| 2026-04-27 05:42 | 9.33468 | 99.19784 | 32098 ft | 473 kts | 197° |
| 2026-04-27 05:42 | 9.30300 | 99.18803 | 31200 ft | 472 kts | 196° |
| 2026-04-27 05:42 | 9.27156 | 99.17843 | 30294 ft | 478 kts | 196° |
| 2026-04-27 05:43 | 9.23945 | 99.16859 | 29632 ft | 478 kts | 196° |
| 2026-04-27 05:43 | 9.20825 | 99.15899 | 28949 ft | 470 kts | 196° |
| 2026-04-27 05:43 | 9.17689 | 99.14912 | 28258 ft | 464 kts | 198° |
| 2026-04-27 05:43 | 9.14650 | 99.13740 | 27565 ft | 467 kts | 203° |
| 2026-04-27 05:44 | 9.11789 | 99.12235 | 26864 ft | 462 kts | 212° |
| 2026-04-27 05:44 | 9.09228 | 99.10351 | 26170 ft | 456 kts | 218° |
| 2026-04-27 05:44 | 9.06762 | 99.08316 | 25468 ft | 449 kts | 219° |
| 2026-04-27 05:44 | 9.04330 | 99.06332 | 24773 ft | 443 kts | 218° |
| 2026-04-27 05:45 | 9.01930 | 99.04394 | 24087 ft | 437 kts | 218° |
| 2026-04-27 05:45 | 8.99551 | 99.02464 | 23401 ft | 431 kts | 218° |
| 2026-04-27 05:45 | 8.97247 | 99.00591 | 22737 ft | 425 kts | 218° |
| 2026-04-27 05:45 | 8.94951 | 98.98723 | 22074 ft | 419 kts | 218° |
| 2026-04-27 05:46 | 8.92682 | 98.96876 | 21417 ft | 414 kts | 218° |
| 2026-04-27 05:46 | 8.90457 | 98.95068 | 20775 ft | 409 kts | 218° |
| 2026-04-27 05:46 | 8.88267 | 98.93289 | 20130 ft | 406 kts | 218° |
| 2026-04-27 05:46 | 8.86050 | 98.91482 | 19475 ft | 410 kts | 218° |
| 2026-04-27 05:47 | 8.83838 | 98.89677 | 18806 ft | 405 kts | 218° |
| 2026-04-27 05:47 | 8.81664 | 98.87903 | 18156 ft | 399 kts | 218° |
| 2026-04-27 05:47 | 8.79505 | 98.86138 | 17493 ft | 395 kts | 218° |
| 2026-04-27 05:47 | 8.77396 | 98.84421 | 16851 ft | 390 kts | 218° |
| 2026-04-27 05:48 | 8.75294 | 98.82707 | 16214 ft | 385 kts | 218° |
| 2026-04-27 05:48 | 8.73198 | 98.80995 | 15576 ft | 380 kts | 218° |
| 2026-04-27 05:48 | 8.71166 | 98.79337 | 14937 ft | 376 kts | 218° |
| 2026-04-27 05:48 | 8.69125 | 98.77673 | 14303 ft | 371 kts | 218° |
| 2026-04-27 05:49 | 8.67138 | 98.76056 | 13701 ft | 366 kts | 218° |
| 2026-04-27 05:49 | 8.65167 | 98.74454 | 13100 ft | 362 kts | 218° |
| 2026-04-27 05:49 | 8.63209 | 98.72858 | 12489 ft | 358 kts | 218° |
| 2026-04-27 05:49 | 8.61290 | 98.71298 | 11884 ft | 354 kts | 218° |
| 2026-04-27 05:50 | 8.59384 | 98.69745 | 11269 ft | 350 kts | 218° |
| 2026-04-27 05:50 | 8.57520 | 98.68226 | 10883 ft | 340 kts | 218° |
| 2026-04-27 05:50 | 8.55705 | 98.66752 | 10607 ft | 327 kts | 218° |
| 2026-04-27 05:50 | 8.53960 | 98.65333 | 10473 ft | 310 kts | 218° |
| 2026-04-27 05:51 | 8.52315 | 98.63994 | 10337 ft | 297 kts | 218° |
| 2026-04-27 05:51 | 8.50716 | 98.62645 | 10127 ft | 302 kts | 224° |
| 2026-04-27 05:51 | 8.49531 | 98.60963 | 10040 ft | 290 kts | 240° |
| 2026-04-27 05:51 | 8.48542 | 98.59155 | 10048 ft | 294 kts | 239° |
| 2026-04-27 05:52 | 8.47516 | 98.57374 | 10046 ft | 293 kts | 239° |
| 2026-04-27 05:52 | 8.46470 | 98.55569 | 10049 ft | 294 kts | 239° |
| 2026-04-27 05:52 | 8.45436 | 98.53775 | 10048 ft | 294 kts | 239° |
| 2026-04-27 05:52 | 8.44414 | 98.52003 | 10046 ft | 294 kts | 239° |
| 2026-04-27 05:53 | 8.43376 | 98.50201 | 10043 ft | 294 kts | 239° |
| 2026-04-27 05:53 | 8.42354 | 98.48426 | 10040 ft | 294 kts | 239° |
| 2026-04-27 05:53 | 8.41327 | 98.46640 | 10037 ft | 294 kts | 239° |
| 2026-04-27 05:53 | 8.40291 | 98.44842 | 10042 ft | 294 kts | 239° |
| 2026-04-27 05:54 | 8.39251 | 98.43036 | 10037 ft | 294 kts | 239° |
| 2026-04-27 05:54 | 8.38220 | 98.41248 | 10037 ft | 295 kts | 239° |
| 2026-04-27 05:54 | 8.37191 | 98.39460 | 10038 ft | 295 kts | 239° |
| 2026-04-27 05:54 | 8.36163 | 98.37675 | 10036 ft | 294 kts | 239° |
| 2026-04-27 05:55 | 8.35132 | 98.35886 | 10040 ft | 295 kts | 239° |
| 2026-04-27 05:55 | 8.34094 | 98.34087 | 10040 ft | 295 kts | 239° |
| 2026-04-27 05:55 | 8.33060 | 98.32293 | 10045 ft | 294 kts | 239° |
| 2026-04-27 05:55 | 8.32030 | 98.30506 | 10045 ft | 295 kts | 239° |
| 2026-04-27 05:56 | 8.31005 | 98.28728 | 10028 ft | 294 kts | 239° |
| 2026-04-27 05:56 | 8.29976 | 98.26943 | 10015 ft | 290 kts | 239° |
| 2026-04-27 05:56 | 8.28972 | 98.25200 | 9800 ft | 287 kts | 239° |
| 2026-04-27 05:56 | 8.27948 | 98.23428 | 9448 ft | 292 kts | 239° |
| 2026-04-27 05:57 | 8.26934 | 98.21670 | 9091 ft | 290 kts | 239° |
| 2026-04-27 05:57 | 8.25929 | 98.19920 | 8726 ft | 287 kts | 239° |
| 2026-04-27 05:57 | 8.24928 | 98.18184 | 8354 ft | 285 kts | 239° |
| 2026-04-27 05:57 | 8.23936 | 98.16464 | 7992 ft | 282 kts | 239° |
| 2026-04-27 05:58 | 8.22953 | 98.14761 | 7643 ft | 280 kts | 239° |
| 2026-04-27 05:58 | 8.21971 | 98.13059 | 7287 ft | 278 kts | 239° |
| 2026-04-27 05:58 | 8.21005 | 98.11385 | 6932 ft | 277 kts | 238° |
| 2026-04-27 05:58 | 8.20043 | 98.09665 | 6570 ft | 284 kts | 244° |
| 2026-04-27 05:59 | 8.19509 | 98.07758 | 6205 ft | 282 kts | 261° |
| 2026-04-27 05:59 | 8.19252 | 98.05804 | 5848 ft | 280 kts | 261° |
| 2026-04-27 05:59 | 8.18876 | 98.03876 | 5470 ft | 277 kts | 249° |
| 2026-04-27 05:59 | 8.17860 | 98.02293 | 5226 ft | 265 kts | 219° |
| 2026-04-27 06:00 | 8.14568 | 98.01314 | 4711 ft | 244 kts | 172° |
| 2026-04-27 06:00 | 8.12916 | 98.01489 | 4547 ft | 236 kts | 172° |
| 2026-04-27 06:00 | 8.11330 | 98.01630 | 4424 ft | 209 kts | 170° |
| 2026-04-27 06:01 | 8.10061 | 98.02006 | 4307 ft | 175 kts | 146° |
| 2026-04-27 06:01 | 8.09242 | 98.02781 | 4077 ft | 156 kts | 120° |
| 2026-04-27 06:01 | 8.08828 | 98.03748 | 3782 ft | 146 kts | 101° |
| 2026-04-27 06:01 | 8.08784 | 98.04747 | 3458 ft | 142 kts | 84° |
| 2026-04-27 06:02 | 8.08887 | 98.05732 | 3145 ft | 139 kts | 85° |
| 2026-04-27 06:02 | 8.08978 | 98.06700 | 2824 ft | 138 kts | 84° |
| 2026-04-27 06:02 | 8.09068 | 98.07649 | 2500 ft | 137 kts | 84° |
| 2026-04-27 06:02 | 8.09162 | 98.08599 | 2186 ft | 135 kts | 84° |
| 2026-04-27 06:03 | 8.09251 | 98.09534 | 1873 ft | 133 kts | 85° |
| 2026-04-27 06:03 | 8.09340 | 98.10452 | 1615 ft | 135 kts | 86° |
| 2026-04-27 06:03 | 8.09431 | 98.11448 | 1944 ft | 148 kts | 84° |
| 2026-04-27 06:03 | 8.09525 | 98.12477 | 2455 ft | 155 kts | 84° |
| 2026-04-27 06:04 | 8.09630 | 98.13605 | 2829 ft | 168 kts | 84° |
| 2026-04-27 06:04 | 8.09740 | 98.14761 | 2900 ft | 159 kts | 84° |
| 2026-04-27 06:04 | 8.09837 | 98.15810 | 2732 ft | 142 kts | 84° |
| 2026-04-27 06:04 | 8.09926 | 98.16771 | 2591 ft | 136 kts | 85° |
| 2026-04-27 06:05 | 8.10014 | 98.17734 | 2456 ft | 137 kts | 84° |
| 2026-04-27 06:05 | 8.10103 | 98.18688 | 2337 ft | 134 kts | 84° |
| 2026-04-27 06:05 | 8.10190 | 98.19634 | 2187 ft | 137 kts | 84° |
| 2026-04-27 06:05 | 8.10276 | 98.20553 | 1947 ft | 128 kts | 85° |
| 2026-04-27 06:06 | 8.10359 | 98.21427 | 1743 ft | 126 kts | 84° |
| 2026-04-27 06:06 | 8.10439 | 98.22315 | 1582 ft | 128 kts | 84° |
| 2026-04-27 06:06 | 8.10522 | 98.23216 | 1469 ft | 127 kts | 84° |
| 2026-04-27 06:06 | 8.10611 | 98.24110 | 1346 ft | 128 kts | 86° |
| 2026-04-27 06:07 | 8.10700 | 98.24989 | 1235 ft | 127 kts | 83° |
| 2026-04-27 06:07 | 8.10776 | 98.25890 | 1134 ft | 129 kts | 84° |
| 2026-04-27 06:07 | 8.10874 | 98.26797 | 1023 ft | 129 kts | 83° |
| 2026-04-27 06:07 | 8.10930 | 98.27699 | 921 ft | 130 kts | 82° |
| 2026-04-27 06:08 | 8.11008 | 98.28612 | 749 ft | 135 kts | 84° |
| 2026-04-27 06:08 | 8.11122 | 98.29542 | 403 ft | 131 kts | 82° |
| 2026-04-27 06:08 | 8.11208 | 98.30455 | 104 ft | 126 kts | 85° |
| 2026-04-27 06:08 | 8.11298 | 98.31351 | 88 ft | 130 kts | 82° |
| 2026-04-27 06:09 | 8.11384 | 98.32274 | 88 ft | 135 kts | 84° |
| 2026-04-27 06:09 | 8.11426 | 98.32879 | 88 ft | 26 kts | 82° |
| 2026-04-27 06:09 | 8.11429 | 98.32902 | 88 ft | 0 kts | 82° |
| 2026-04-27 06:09 | 8.11433 | 98.32932 | 88 ft | 12 kts | 82° |
| 2026-04-27 06:10 | 8.11390 | 98.33007 | 88 ft | 16 kts | 164° |
| 2026-04-27 06:10 | 8.11306 | 98.32942 | 88 ft | 21 kts | 266° |
| 2026-04-27 06:10 | 8.11269 | 98.32503 | 88 ft | 123 kts | 264° |
| 2026-04-27 06:10 | 8.11183 | 98.31674 | 88 ft | 93 kts | 259° |
| 2026-04-27 06:11 | 8.11156 | 98.31346 | 88 ft | 25 kts | 267° |
| 2026-04-27 06:11 | 8.11141 | 98.31175 | 88 ft | 39 kts | 265° |
| 2026-04-27 06:11 | 8.11066 | 98.30848 | 88 ft | 26 kts | 268° |
| 2026-04-27 06:11 | 8.11059 | 98.30683 | 88 ft | 19 kts | 265° |
| 2026-04-27 06:12 | 8.11045 | 98.30631 | 88 ft | 4 kts | 200° |
| 2026-04-27 06:12 | 8.10976 | 98.30637 | 88 ft | 2 kts | 174° |
| 2026-04-27 06:12 | 8.10971 | 98.30637 | 88 ft | 0 kts | 175° |